Greater Peoria Regional Airport
KPIA : now visible

Airfield :











YOU CAN JOIN US ON...

 
LOGIN :

Register | Disclaimer

   EN    FR    IT 

 









Legend :    VFR   Marginal VFR   IFR   Intensive IFR   Very Intensive IFR
Visi :
Ceiling :
>= 8 km
>= 3000ft
5 to 8 km
1000 to 3000 ft
1500m to 5 km
500 to 1000 ft
800 to 1500m
200 to 500 ft
< 800m
< 200 ft
Symbols :   Thunderstorms  Fog  Heavy snow  Heavy precipitations  Wind > 20 kt






- Airport Elevation : 660 ft
- IATA code : PIA


KPIA - Greater Peoria Regional

CURRENT METAR :
  • 160914Z 28007KT 3SM -SN BR FEW005 SCT043 OVC050 M01/M02 A2966 RMK AO2 P0000 T10111022

EXPIRED METARs :
  • 160854Z 28007KT 4SM -SN BR BKN046 OVC055 M01/M03 A2966 RMK AO2 SNB46 SLP049 P0000 60000 I3001 T10111028 51008
  • 160754Z 29005KT 9SM OVC060 M02/M03 A2966 RMK AO2 SLP048 T10171033
  • 160654Z 00000KT 7SM CLR M02/M03 A2964 RMK AO2 SLP043 I1001 T10221033

TAF KPIA
Valid from the 16 at 06:00 until the 17 at 06:00 UTC


160520Z 1606/1706 32005KT P6SM SCT020
FM160900 28010KT P6SM VCSH SCT008 BKN012
TEMPO 1609/1613 2SM -SN OVC009
FM161500 29012G20KT P6SM VCSH OVC008
FM170100 28012KT P6SM VCSH OVC009
KZAU FIR / North America



MET'MAP, your aeronautical weather chart ! - Copyright ORBIFLY December 2007 - Disclaimer

ORBIFLY MET'MAP TEAM :

Programming & Development : Alexandra Zaïnal
Concept & original design : Baudouin d'Aumeries
Assistance for programming : Marc-Olivier Méhu
Technical & hardware support : Manuel Goepfert

Contact : metmap@orbifly.com




SOURCES & CREDITS :

   NOAA       Earth
Advisory